Time;durP1;ratioP1;P1;durP2;ratioP2;P2;SDS_P1;SDS_P2;PMS_P1;PMS_P2;Temp;Humidity;BMP_temperature;BMP_pressure;BME280_temperature;BME280_humidity;BME280_pressure;Samples;Min_cycle;Max_cycle;Signal;HPM_P1;HPM_P2
2024/04/19 00:01:40;;;;;;;6.32;3.08;;;8.00;99.90;;;;;;5452314;26;20010;-80
2024/04/19 00:04:06;;;;;;;8.30;3.58;;;8.00;99.90;;;;;;5478409;26;20042;-80
2024/04/19 00:06:32;;;;;;;10.90;3.55;;;8.00;99.90;;;;;;5478884;26;20002;-80
2024/04/19 00:08:58;;;;;;;11.63;3.72;;;8.00;99.90;;;;;;5476839;26;20247;-80
2024/04/19 00:11:23;;;;;;;7.40;3.40;;;8.00;99.90;;;;;;5463571;26;20002;-80
2024/04/19 00:13:51;;;;;;;8.23;3.50;;;8.00;99.90;;;;;;5456836;26;20470;-80
2024/04/19 00:16:17;;;;;;;7.00;3.47;;;8.00;99.90;;;;;;5483226;26;20472;-79
2024/04/19 00:18:43;;;;;;;6.55;3.53;;;8.00;99.90;;;;;;5457365;26;20003;-79
2024/04/19 00:21:08;;;;;;;7.40;3.53;;;8.00;99.90;;;;;;5482515;26;20005;-80
2024/04/19 00:23:36;;;;;;;8.52;3.42;;;8.00;99.90;;;;;;5482408;26;20013;-79
2024/04/19 00:26:02;;;;;;;7.63;3.45;;;7.90;99.90;;;;;;5457184;26;19998;-79
2024/04/19 00:28:27;;;;;;;6.78;3.28;;;7.90;99.90;;;;;;5464092;26;20003;-78
2024/04/19 00:30:56;;;;;;;8.45;3.55;;;7.90;99.90;;;;;;5468750;26;20014;-77
2024/04/19 00:33:22;;;;;;;6.05;3.40;;;7.90;99.90;;;;;;5481736;26;20002;-78
2024/04/19 00:35:48;;;;;;;8.40;3.20;;;7.80;99.90;;;;;;5482340;26;20479;-78
2024/04/19 00:38:13;;;;;;;7.07;3.58;;;7.90;99.90;;;;;;5482566;26;19998;-77
2024/04/19 00:40:39;;;;;;;5.95;3.42;;;7.80;99.90;;;;;;5460487;26;20009;-78
2024/04/19 00:43:05;;;;;;;8.15;3.60;;;7.80;99.90;;;;;;5478609;26;20002;-77
2024/04/19 00:45:40;;;;;;;7.32;3.13;;;7.80;99.90;;;;;;5464120;26;19994;-77
2024/04/19 00:48:06;;;;;;;6.43;3.60;;;7.80;99.90;;;;;;5443484;26;20002;-77
2024/04/19 00:50:34;;;;;;;7.10;3.42;;;7.80;99.90;;;;;;5456299;26;20074;-76
2024/04/19 00:53:01;;;;;;;8.52;4.15;;;7.80;99.90;;;;;;5459431;26;20007;-76
2024/04/19 00:55:28;;;;;;;5.68;3.60;;;7.70;99.90;;;;;;5452014;26;20553;-76
2024/04/19 00:57:55;;;;;;;7.47;4.10;;;7.80;99.90;;;;;;5481333;26;20070;-76
2024/04/19 01:00:21;;;;;;;6.90;4.03;;;7.80;99.90;;;;;;5457368;26;20356;-77
2024/04/19 01:02:48;;;;;;;7.40;4.43;;;7.80;99.90;;;;;;5466006;26;20009;-77
2024/04/19 01:05:13;;;;;;;6.78;3.63;;;7.80;99.90;;;;;;5471929;26;20002;-76
2024/04/19 01:07:39;;;;;;;7.78;3.90;;;7.80;99.90;;;;;;5457739;26;20013;-75
2024/04/19 01:10:05;;;;;;;9.07;4.20;;;7.80;99.90;;;;;;5459745;26;20003;-75
2024/04/19 01:12:31;;;;;;;10.43;4.03;;;7.80;99.90;;;;;;5470762;26;20079;-75
2024/04/19 01:14:56;;;;;;;10.30;4.50;;;7.90;99.90;;;;;;5443970;26;20014;-75
2024/04/19 01:17:22;;;;;;;7.75;4.25;;;7.80;99.90;;;;;;5469032;26;20009;-76
2024/04/19 01:19:48;;;;;;;9.25;4.72;;;7.90;99.90;;;;;;5461724;26;20355;-76
2024/04/19 01:22:13;;;;;;;10.55;4.65;;;7.90;99.90;;;;;;5453854;26;20543;-75
2024/04/19 01:24:47;;;;;;;8.20;4.72;;;7.90;99.90;;;;;;5470740;26;19999;-75
2024/04/19 01:27:12;;;;;;;8.63;4.20;;;7.90;99.90;;;;;;5469778;26;20432;-74
2024/04/19 01:29:38;;;;;;;9.10;4.53;;;7.90;99.90;;;;;;5482173;26;20013;-74
2024/04/19 01:32:05;;;;;;;6.22;3.83;;;7.90;99.90;;;;;;5481022;26;20361;-75
2024/04/19 01:34:31;;;;;;;7.88;4.13;;;7.90;99.90;;;;;;5482255;26;20026;-75
2024/04/19 01:36:57;;;;;;;9.93;4.18;;;7.90;99.90;;;;;;5463990;26;20010;-75
2024/04/19 01:39:24;;;;;;;8.00;4.10;;;7.90;99.90;;;;;;5474214;26;20042;-75
2024/04/19 01:41:49;;;;;;;7.45;4.28;;;7.90;99.90;;;;;;5479316;26;19998;-75
2024/04/19 01:44:15;;;;;;;8.30;3.78;;;7.90;99.90;;;;;;5482037;26;19998;-75
2024/04/19 01:46:41;;;;;;;9.55;3.83;;;7.90;99.90;;;;;;5455946;26;20009;-75
2024/04/19 01:49:07;;;;;;;8.07;4.38;;;7.90;99.90;;;;;;5481373;26;19998;-75
2024/04/19 01:51:33;;;;;;;8.30;4.28;;;7.90;99.90;;;;;;5481494;26;19998;-75
2024/04/19 01:53:59;;;;;;;6.72;3.80;;;7.90;99.90;;;;;;5480693;26;20082;-75
2024/04/19 01:56:24;;;;;;;9.77;4.15;;;7.90;99.90;;;;;;5481802;26;20456;-75
2024/04/19 01:58:50;;;;;;;8.10;4.40;;;8.00;99.90;;;;;;5455343;26;20060;-75
2024/04/19 02:01:16;;;;;;;10.85;4.70;;;7.90;99.90;;;;;;5482053;26;20013;-76
2024/04/19 02:03:42;;;;;;;9.85;4.88;;;8.00;99.90;;;;;;5476898;26;20006;-75
2024/04/19 02:06:09;;;;;;;8.25;5.15;;;8.00;99.90;;;;;;5460113;26;20156;-74
2024/04/19 02:08:35;;;;;;;10.35;5.25;;;8.00;99.90;;;;;;5455274;26;20011;-74
2024/04/19 02:11:03;;;;;;;9.45;4.95;;;8.00;99.90;;;;;;5470092;26;20048;-74
2024/04/19 02:13:28;;;;;;;7.53;5.13;;;8.00;99.90;;;;;;5466570;26;20053;-74
2024/04/19 02:15:54;;;;;;;11.10;5.07;;;8.00;99.90;;;;;;5455560;26;20002;-74
2024/04/19 02:18:20;;;;;;;9.73;5.20;;;8.00;99.90;;;;;;5480953;26;20038;-74
2024/04/19 02:20:45;;;;;;;11.00;5.43;;;8.00;99.90;;;;;;5480726;26;20080;-74
2024/04/19 02:23:11;;;;;;;8.98;4.70;;;8.00;99.90;;;;;;5480523;26;20256;-74
2024/04/19 02:25:36;;;;;;;10.88;4.30;;;7.90;99.90;;;;;;5455498;26;20014;-75
2024/04/19 02:30:54;;;;;;;8.40;5.15;;;8.00;99.90;;;;;;5471406;26;20400;-75
2024/04/19 02:33:21;;;;;;;8.63;4.65;;;7.90;99.90;;;;;;5479058;26;19998;-75
2024/04/19 02:35:47;;;;;;;7.85;4.45;;;8.00;99.90;;;;;;5455114;26;20332;-75
2024/04/19 02:38:13;;;;;;;7.93;4.53;;;7.90;99.90;;;;;;5469163;26;20002;-75
2024/04/19 02:40:38;;;;;;;9.30;4.90;;;7.90;99.90;;;;;;5466678;26;20035;-75
2024/04/19 02:43:04;;;;;;;9.18;4.40;;;7.90;99.90;;;;;;5460195;26;20511;-76
2024/04/19 02:45:29;;;;;;;7.10;3.58;;;7.90;99.90;;;;;;5480827;26;20338;-76
2024/04/19 02:47:55;;;;;;;8.50;4.40;;;7.90;99.90;;;;;;5454190;26;20040;-75
2024/04/19 02:50:20;;;;;;;9.57;4.20;;;7.90;99.90;;;;;;5474428;26;20001;-76
2024/04/19 02:52:46;;;;;;;7.20;4.07;;;7.90;99.90;;;;;;5462539;26;20487;-75
2024/04/19 02:55:12;;;;;;;7.38;4.45;;;8.00;99.90;;;;;;5470462;26;20046;-76
2024/04/19 02:57:37;;;;;;;7.22;3.92;;;7.90;99.90;;;;;;5457764;26;20009;-76
2024/04/19 03:00:04;;;;;;;8.48;4.32;;;8.00;99.90;;;;;;5455165;26;20345;-76
2024/04/19 03:02:29;;;;;;;9.30;5.30;;;8.00;99.90;;;;;;5469280;26;19998;-74
2024/04/19 03:04:55;;;;;;;8.15;4.70;;;8.00;99.90;;;;;;5466120;26;20009;-76
2024/04/19 03:07:20;;;;;;;11.27;5.80;;;8.00;99.90;;;;;;5454562;26;19998;-76
2024/04/19 03:09:49;;;;;;;8.98;4.70;;;8.00;99.90;;;;;;5462576;26;20003;-76
2024/04/19 03:12:15;;;;;;;6.28;4.32;;;8.00;99.90;;;;;;5469146;26;20013;-76
2024/04/19 03:14:40;;;;;;;9.05;5.05;;;8.00;99.90;;;;;;5459235;26;20463;-76
2024/04/19 03:17:06;;;;;;;7.32;4.38;;;8.00;99.90;;;;;;5479905;26;19998;-75
2024/04/19 03:19:31;;;;;;;8.73;4.68;;;8.00;99.90;;;;;;5469163;26;20208;-76
2024/04/19 03:21:57;;;;;;;7.03;4.13;;;8.00;99.90;;;;;;5466459;26;20435;-76
2024/04/19 03:24:22;;;;;;;7.13;4.30;;;8.00;99.90;;;;;;5454047;26;20002;-75
2024/04/19 03:26:48;;;;;;;6.55;4.38;;;8.00;99.90;;;;;;5480132;26;20070;-75
2024/04/19 03:29:14;;;;;;;7.63;4.03;;;8.00;99.90;;;;;;5475859;26;19998;-75
2024/04/19 03:31:39;;;;;;;7.85;4.47;;;8.00;99.90;;;;;;5458463;26;20078;-74
2024/04/19 03:34:05;;;;;;;7.90;4.88;;;8.00;99.90;;;;;;5453735;26;20014;-75
2024/04/19 03:36:51;;;;;;;7.22;4.93;;;8.00;99.90;;;;;;5480666;26;20003;-76
2024/04/19 03:39:17;;;;;;;6.13;4.60;;;8.00;99.90;;;;;;5453926;26;20002;-76
2024/04/19 03:41:43;;;;;;;8.02;4.88;;;8.00;99.90;;;;;;5469373;26;20516;-75
2024/04/19 03:46:54;;;;;;;9.00;5.45;;;8.00;99.90;;;;;;5460636;26;20539;-75
2024/04/19 03:49:19;;;;;;;6.88;4.55;;;8.00;99.90;;;;;;5458462;26;20006;-75
2024/04/19 03:51:45;;;;;;;8.70;5.25;;;8.00;99.90;;;;;;5444820;26;20009;-75
2024/04/19 03:54:11;;;;;;;8.52;6.07;;;8.00;99.90;;;;;;5458434;26;20006;-76
2024/04/19 03:56:36;;;;;;;7.45;5.53;;;8.00;99.90;;;;;;5459020;26;20011;-74
2024/04/19 03:59:02;;;;;;;9.07;6.30;;;8.00;99.90;;;;;;5471475;26;19999;-75
2024/04/19 04:01:28;;;;;;;9.48;5.43;;;8.00;99.90;;;;;;5468030;26;20002;-75
2024/04/19 04:03:54;;;;;;;9.93;6.43;;;8.00;99.90;;;;;;5456913;26;20557;-75
2024/04/19 04:06:20;;;;;;;7.90;6.05;;;8.00;99.90;;;;;;5466126;26;20003;-76
2024/04/19 04:08:46;;;;;;;10.80;6.85;;;8.00;99.90;;;;;;5471406;26;20462;-75
2024/04/19 04:11:12;;;;;;;8.57;6.18;;;8.00;99.90;;;;;;5461073;26;20002;-76
2024/04/19 04:13:39;;;;;;;8.52;6.18;;;8.00;99.90;;;;;;5457479;26;20074;-76
2024/04/19 04:16:06;;;;;;;8.38;6.57;;;8.00;99.90;;;;;;5482896;26;20074;-75
2024/04/19 04:18:31;;;;;;;11.13;6.15;;;8.00;99.90;;;;;;5482373;26;20012;-75
2024/04/19 04:20:57;;;;;;;11.55;6.95;;;8.00;99.90;;;;;;5457507;26;20010;-75
2024/04/19 04:23:23;;;;;;;9.07;6.57;;;8.00;99.90;;;;;;5482194;26;20002;-75
2024/04/19 04:25:48;;;;;;;10.50;6.40;;;8.00;99.90;;;;;;5482965;26;19998;-75
2024/04/19 04:28:14;;;;;;;10.77;6.70;;;8.00;99.90;;;;;;5480309;26;20002;-75
2024/04/19 04:30:40;;;;;;;9.05;5.95;;;8.00;99.90;;;;;;5480682;26;20482;-74
2024/04/19 04:33:06;;;;;;;7.65;5.68;;;8.00;99.90;;;;;;5471645;26;20019;-75
2024/04/19 04:35:32;;;;;;;9.07;6.00;;;8.10;99.90;;;;;;5468601;26;20332;-74
2024/04/19 04:37:57;;;;;;;7.32;5.70;;;8.00;99.90;;;;;;5474525;26;20028;-75
2024/04/19 04:40:23;;;;;;;6.95;5.35;;;8.10;99.90;;;;;;5464714;26;20034;-74
2024/04/19 04:42:49;;;;;;;7.03;5.20;;;8.10;99.90;;;;;;5475099;26;20351;-75
2024/04/19 04:45:14;;;;;;;6.93;5.15;;;8.10;99.90;;;;;;5482825;26;20002;-75
2024/04/19 04:47:40;;;;;;;7.40;5.60;;;8.20;99.90;;;;;;5456628;26;19999;-75
2024/04/19 04:50:06;;;;;;;6.43;3.78;;;8.20;99.90;;;;;;5475437;26;20006;-75
2024/04/19 04:52:31;;;;;;;7.03;4.95;;;8.20;99.90;;;;;;5478753;26;20012;-75
2024/04/19 04:54:57;;;;;;;6.13;4.28;;;8.20;99.90;;;;;;5456892;26;19999;-75
2024/04/19 04:57:25;;;;;;;5.30;4.00;;;8.20;99.90;;;;;;5471080;26;20009;-75
2024/04/19 04:59:51;;;;;;;5.88;4.40;;;8.20;99.90;;;;;;5468413;26;20006;-75
2024/04/19 05:02:16;;;;;;;5.88;4.53;;;8.20;99.90;;;;;;5456614;26;20332;-75
2024/04/19 05:04:45;;;;;;;5.30;4.10;;;8.30;99.90;;;;;;5463062;26;19999;-75
2024/04/19 05:07:10;;;;;;;7.50;4.40;;;8.40;99.90;;;;;;5471568;26;20002;-75
2024/04/19 05:09:36;;;;;;;6.65;5.00;;;8.40;99.90;;;;;;5460917;26;19998;-75
2024/04/19 05:12:02;;;;;;;6.35;4.35;;;8.40;99.90;;;;;;5481301;26;20010;-75
2024/04/19 05:14:28;;;;;;;5.75;4.18;;;8.40;99.90;;;;;;5457749;26;20010;-75
2024/04/19 05:16:53;;;;;;;8.52;4.53;;;8.50;99.90;;;;;;5459361;26;20011;-75
2024/04/19 05:19:19;;;;;;;4.53;3.38;;;8.50;99.90;;;;;;5471190;26;20352;-75
2024/04/19 05:21:45;;;;;;;5.63;4.32;;;8.50;99.90;;;;;;5455469;26;20407;-76
2024/04/19 05:24:11;;;;;;;6.50;4.57;;;8.50;99.90;;;;;;5470758;26;20047;-75
2024/04/19 05:26:36;;;;;;;5.80;3.65;;;8.60;99.90;;;;;;5461740;26;19994;-76
2024/04/19 05:29:02;;;;;;;4.22;3.40;;;8.60;99.90;;;;;;5453569;26;20019;-76
2024/04/19 05:31:28;;;;;;;5.85;4.25;;;8.60;99.90;;;;;;5470319;26;19995;-76
2024/04/19 05:33:54;;;;;;;6.07;4.32;;;8.70;99.90;;;;;;5467463;26;20478;-76
2024/04/19 05:36:19;;;;;;;4.80;3.60;;;8.70;99.90;;;;;;5456809;26;20452;-75
2024/04/19 05:38:45;;;;;;;7.55;4.80;;;8.70;99.90;;;;;;5481028;26;19994;-76
2024/04/19 05:41:11;;;;;;;5.53;4.05;;;8.80;99.90;;;;;;5477239;26;19994;-75
2024/04/19 05:43:36;;;;;;;6.70;4.95;;;8.90;99.90;;;;;;5466154;26;20026;-75
2024/04/19 05:46:02;;;;;;;5.20;3.92;;;8.80;99.90;;;;;;5456101;26;20471;-75
2024/04/19 05:48:28;;;;;;;6.22;4.97;;;8.90;99.90;;;;;;5467442;26;20218;-75
2024/04/19 05:50:54;;;;;;;7.20;5.60;;;8.90;99.90;;;;;;5452186;26;20056;-75
2024/04/19 05:53:19;;;;;;;8.18;6.13;;;9.00;99.90;;;;;;5469932;26;19994;-75
2024/04/19 05:55:45;;;;;;;8.73;6.28;;;9.00;99.90;;;;;;5456241;26;20026;-75
2024/04/19 05:58:12;;;;;;;11.35;6.90;;;9.10;99.90;;;;;;5474150;26;20013;-75
2024/04/19 06:00:38;;;;;;;9.40;6.45;;;9.10;99.90;;;;;;5480319;26;19998;-75
2024/04/19 06:03:04;;;;;;;9.07;6.07;;;9.20;99.90;;;;;;5480338;26;20002;-75
2024/04/19 06:05:30;;;;;;;9.70;6.57;;;9.20;99.90;;;;;;5476553;26;19990;-75
2024/04/19 06:07:56;;;;;;;12.60;6.50;;;9.30;99.90;;;;;;5470825;26;19994;-76
2024/04/19 06:10:21;;;;;;;10.75;6.63;;;9.30;99.90;;;;;;5482080;26;20069;-76
2024/04/19 06:12:47;;;;;;;12.38;6.47;;;9.40;99.90;;;;;;5479217;26;20005;-75
2024/04/19 06:15:13;;;;;;;12.15;6.18;;;9.40;99.90;;;;;;5474520;26;20010;-75
2024/04/19 06:17:38;;;;;;;11.00;6.30;;;9.40;99.90;;;;;;5467129;26;20017;-75
2024/04/19 06:20:05;;;;;;;11.35;6.18;;;9.50;99.90;;;;;;5480382;26;19994;-75
2024/04/19 06:22:30;;;;;;;18.35;5.68;;;9.50;99.90;;;;;;5463575;26;20612;-75
2024/04/19 06:24:56;;;;;;;16.33;6.55;;;9.50;99.90;;;;;;5449837;26;20003;-75
2024/04/19 06:27:22;;;;;;;13.07;5.72;;;9.60;99.90;;;;;;5449614;26;19999;-76
2024/04/19 06:29:49;;;;;;;16.67;6.20;;;9.60;99.90;;;;;;5470632;26;20436;-76
2024/04/19 06:32:15;;;;;;;12.73;5.68;;;9.70;99.90;;;;;;5468215;26;19998;-76
2024/04/19 06:34:41;;;;;;;17.80;5.68;;;9.70;99.90;;;;;;5478090;26;20452;-75
2024/04/19 06:37:06;;;;;;;13.95;5.35;;;9.70;99.90;;;;;;5455165;26;20368;-75
2024/04/19 06:39:32;;;;;;;12.38;5.30;;;9.80;99.90;;;;;;5479300;26;20452;-75
2024/04/19 06:41:59;;;;;;;23.75;5.65;;;9.80;99.90;;;;;;5479837;26;20409;-75
2024/04/19 06:44:25;;;;;;;13.15;4.35;;;9.80;99.90;;;;;;5480219;26;20054;-76
2024/04/19 06:46:50;;;;;;;14.07;4.60;;;9.90;99.90;;;;;;5480544;26;20477;-76
2024/04/19 06:49:16;;;;;;;16.48;4.30;;;9.90;99.90;;;;;;5480327;26;20002;-76
2024/04/19 06:51:42;;;;;;;13.90;4.97;;;9.90;99.90;;;;;;5480137;26;20483;-76
2024/04/19 06:54:08;;;;;;;17.92;4.75;;;9.90;99.90;;;;;;5477542;26;20343;-77
2024/04/19 06:56:33;;;;;;;13.82;4.40;;;10.00;99.90;;;;;;5480694;26;20078;-76
2024/04/19 06:58:59;;;;;;;16.90;4.20;;;10.00;99.90;;;;;;5477970;26;20009;-76
2024/04/19 07:01:25;;;;;;;17.83;3.78;;;10.00;99.90;;;;;;5466137;26;20085;-76
2024/04/19 07:03:53;;;;;;;20.17;4.13;;;10.10;99.90;;;;;;5476556;26;20095;-75
2024/04/19 07:06:19;;;;;;;14.23;4.05;;;10.10;99.90;;;;;;5479442;26;20116;-76
2024/04/19 07:08:45;;;;;;;13.70;3.22;;;10.20;99.90;;;;;;5453452;26;20287;-75
2024/04/19 07:11:11;;;;;;;11.77;3.22;;;10.20;99.90;;;;;;5467075;26;20017;-76
2024/04/19 07:13:37;;;;;;;20.23;4.50;;;10.20;99.90;;;;;;5461750;26;20473;-76
2024/04/19 07:16:02;;;;;;;16.23;3.88;;;10.30;99.90;;;;;;5464523;26;20014;-76
2024/04/19 07:18:28;;;;;;;19.58;3.97;;;10.30;99.90;;;;;;5478856;26;20009;-76
2024/04/19 07:20:54;;;;;;;14.35;4.03;;;10.40;99.90;;;;;;5478980;26;19994;-76
2024/04/19 07:23:23;;;;;;;15.32;3.92;;;10.40;99.90;;;;;;5478683;26;19998;-77
2024/04/19 07:25:49;;;;;;;13.95;3.83;;;10.50;99.90;;;;;;5452758;26;20002;-76
2024/04/19 07:28:15;;;;;;;15.60;3.10;;;10.50;99.90;;;;;;5474603;26;20532;-77
2024/04/19 07:30:42;;;;;;;15.50;3.40;;;10.50;99.90;;;;;;5473746;26;20010;-77
2024/04/19 07:33:08;;;;;;;18.98;3.38;;;10.60;99.90;;;;;;5472618;26;20011;-77
2024/04/19 07:35:34;;;;;;;26.45;3.55;;;10.60;99.90;;;;;;5470395;26;20360;-76
2024/04/19 07:37:59;;;;;;;21.10;4.32;;;10.50;99.90;;;;;;5478806;26;20006;-76
2024/04/19 07:40:25;;;;;;;16.13;3.63;;;10.60;99.90;;;;;;5479545;26;20365;-76
2024/04/19 07:42:51;;;;;;;18.38;3.65;;;10.60;99.90;;;;;;5475102;26;20332;-76
2024/04/19 07:45:22;;;;;;;20.13;3.45;;;10.60;99.90;;;;;;5461385;26;20579;-76
2024/04/19 07:47:49;;;;;;;23.27;4.50;;;10.50;99.90;;;;;;5439959;26;20942;-75
2024/04/19 07:50:14;;;;;;;19.73;4.90;;;10.50;99.90;;;;;;5470610;26;20045;-75
2024/04/19 07:52:40;;;;;;;15.30;4.43;;;10.50;99.90;;;;;;5461892;26;20006;-75
2024/04/19 07:55:07;;;;;;;23.50;5.82;;;10.50;99.90;;;;;;5476221;26;20436;-74
2024/04/19 07:57:33;;;;;;;20.92;5.38;;;10.50;99.90;;;;;;5476275;26;19994;-75
2024/04/19 08:00:00;;;;;;;16.13;4.30;;;10.40;99.90;;;;;;5475762;26;19997;-75
2024/04/19 08:02:33;;;;;;;9.85;3.60;;;10.40;99.90;;;;;;5445120;26;19995;-75
2024/04/19 08:04:59;;;;;;;9.43;3.03;;;10.40;99.90;;;;;;5468394;26;19995;-75
2024/04/19 08:07:26;;;;;;;11.20;2.40;;;10.40;99.90;;;;;;5475892;26;20005;-75
2024/04/19 08:09:55;;;;;;;14.30;3.55;;;10.40;99.90;;;;;;5465482;26;19992;-75
2024/04/19 08:12:21;;;;;;;16.95;3.10;;;10.40;99.90;;;;;;5470859;26;20005;-76
2024/04/19 08:14:47;;;;;;;13.75;2.97;;;10.40;99.90;;;;;;5478456;26;20002;-75
2024/04/19 08:17:12;;;;;;;18.15;3.45;;;10.40;99.90;;;;;;5479066;26;20002;-75
2024/04/19 08:19:38;;;;;;;10.38;3.00;;;10.40;99.90;;;;;;5478727;26;20013;-75
2024/04/19 08:22:04;;;;;;;14.93;3.53;;;10.40;99.90;;;;;;5455731;26;20344;-76
2024/04/19 08:24:29;;;;;;;14.50;3.42;;;10.40;99.90;;;;;;5468121;26;20003;-75
2024/04/19 08:26:55;;;;;;;16.23;3.50;;;10.50;99.90;;;;;;5463571;26;20528;-76
2024/04/19 08:29:21;;;;;;;20.80;3.80;;;10.50;99.90;;;;;;5454962;26;20026;-76
2024/04/19 08:31:47;;;;;;;14.32;2.85;;;10.50;99.90;;;;;;5466131;26;19999;-75
2024/04/19 08:34:13;;;;;;;9.55;2.20;;;10.50;99.90;;;;;;5472654;26;20560;-76
2024/04/19 08:36:38;;;;;;;7.05;1.92;;;10.50;99.90;;;;;;5483054;26;20078;-76
2024/04/19 08:39:04;;;;;;;13.30;2.33;;;10.50;99.90;;;;;;5481697;26;20012;-76
2024/04/19 08:41:32;;;;;;;11.07;2.42;;;10.50;99.90;;;;;;5482521;26;20002;-76
2024/04/19 08:43:59;;;;;;;13.07;2.97;;;10.50;99.90;;;;;;5480657;26;20002;-76
2024/04/19 08:46:27;;;;;;;7.85;1.88;;;10.50;99.90;;;;;;5468638;26;19998;-75
2024/04/19 08:48:54;;;;;;;3.90;1.25;;;10.40;99.90;;;;;;5481118;26;20002;-75
2024/04/19 08:51:21;;;;;;;5.18;1.00;;;10.40;99.90;;;;;;5475766;26;20428;-76
2024/04/19 08:53:49;;;;;;;7.25;1.30;;;10.40;99.90;;;;;;5454184;26;20070;-76
2024/04/19 08:56:14;;;;;;;4.20;0.90;;;10.30;99.90;;;;;;5481804;26;20468;-76
2024/04/19 08:58:40;;;;;;;3.38;0.90;;;10.30;99.90;;;;;;5465984;26;20179;-76
2024/04/19 09:01:06;;;;;;;2.97;0.93;;;10.20;99.90;;;;;;5468146;26;20490;-76
2024/04/19 09:03:31;;;;;;;3.08;0.80;;;10.20;99.90;;;;;;5471475;26;20013;-76
2024/04/19 09:05:57;;;;;;;4.88;1.05;;;10.20;99.90;;;;;;5482074;26;19998;-76
2024/04/19 09:08:23;;;;;;;5.00;1.15;;;10.20;99.90;;;;;;5481096;26;19998;-76
2024/04/19 09:10:52;;;;;;;1.90;0.88;;;10.30;99.90;;;;;;5479627;26;20020;-76
2024/04/19 09:13:18;;;;;;;1.98;1.05;;;10.30;99.90;;;;;;5471798;26;19998;-76
2024/04/19 09:15:47;;;;;;;5.30;1.30;;;10.40;99.90;;;;;;5482015;26;20021;-77
2024/04/19 09:18:13;;;;;;;6.90;1.00;;;10.50;99.90;;;;;;5480442;26;20078;-76
2024/04/19 09:20:46;;;;;;;6.55;1.10;;;10.50;99.90;;;;;;5456931;26;20003;-76
2024/04/19 09:23:11;;;;;;;5.50;1.05;;;10.60;99.90;;;;;;5467331;26;20011;-77
2024/04/19 09:25:38;;;;;;;5.13;1.40;;;10.60;99.90;;;;;;5470793;26;19998;-77
2024/04/19 09:28:05;;;;;;;3.63;1.20;;;10.60;99.90;;;;;;5444101;26;20017;-76
2024/04/19 09:30:31;;;;;;;4.40;1.20;;;10.60;99.90;;;;;;5468243;26;20034;-76
2024/04/19 09:32:57;;;;;;;5.03;1.55;;;10.60;99.90;;;;;;5481885;26;20060;-75
2024/04/19 09:35:27;;;;;;;8.05;1.70;;;10.60;99.90;;;;;;5461564;26;20007;-75
2024/04/19 09:37:54;;;;;;;6.23;1.47;;;10.60;99.90;;;;;;5475879;26;20051;-75
2024/04/19 09:40:25;;;;;;;4.93;1.60;;;10.50;99.90;;;;;;5480753;26;20002;-76
2024/04/19 09:42:51;;;;;;;;;;;10.50;99.90;;;;;;5481562;26;20026;-76
2024/04/19 09:45:21;;;;;;;5.03;1.40;;;10.50;99.90;;;;;;5481082;26;19924;-76
2024/04/19 09:47:51;;;;;;;4.38;1.40;;;10.60;99.90;;;;;;5481454;26;20002;-76
2024/04/19 09:50:22;;;;;;;2.58;0.90;;;10.70;99.90;;;;;;5480814;26;20009;-77
2024/04/19 09:52:52;;;;;;;2.28;1.20;;;10.70;99.90;;;;;;5482057;26;20005;-77
2024/04/19 09:55:25;;;;;;;5.53;1.17;;;10.80;99.90;;;;;;5481317;26;20009;-76
2024/04/19 09:57:53;;;;;;;2.63;1.00;;;10.90;99.90;;;;;;5481156;26;20029;-76
2024/04/19 10:00:21;;;;;;;12.05;1.50;;;11.00;99.90;;;;;;5467047;26;19995;-76
2024/04/19 10:02:47;;;;;;;2.75;0.85;;;11.00;99.90;;;;;;5481360;26;19994;-76
2024/04/19 10:05:13;;;;;;;6.18;1.27;;;11.10;99.90;;;;;;5462773;26;20353;-77
2024/04/19 10:07:41;;;;;;;3.33;0.90;;;11.20;99.90;;;;;;5480940;26;19993;-76
2024/04/19 10:10:07;;;;;;;5.22;1.02;;;11.20;99.90;;;;;;5481191;26;20074;-77
2024/04/19 10:12:34;;;;;;;3.38;1.00;;;11.20;99.90;;;;;;5481437;26;20318;-76
2024/04/19 10:15:00;;;;;;;3.60;0.80;;;11.30;99.90;;;;;;5480547;26;19997;-76
2024/04/19 10:17:26;;;;;;;3.83;0.77;;;11.30;99.90;;;;;;5478964;26;19998;-77
2024/04/19 10:19:53;;;;;;;2.42;0.85;;;11.30;99.90;;;;;;5471277;26;19997;-77
2024/04/19 10:22:23;;;;;;;5.72;0.68;;;11.40;99.90;;;;;;5478231;26;20487;-77
2024/04/19 10:25:01;;;;;;;1.85;0.65;;;11.50;99.90;;;;;;5450026;26;20199;-77
2024/04/19 10:27:32;;;;;;;3.50;1.80;;;11.50;99.90;;;;;;5473930;26;20009;-78
2024/04/19 10:29:59;;;;;;;2.35;0.90;;;11.60;99.90;;;;;;5481491;26;20010;-78
2024/04/19 10:32:25;;;;;;;0.88;0.43;;;11.60;99.90;;;;;;5481586;26;20002;-78
2024/04/19 10:34:53;;;;;;;3.75;0.68;;;11.60;99.90;;;;;;5456438;26;20059;-78
2024/04/19 10:37:22;;;;;;;4.93;0.80;;;11.50;99.90;;;;;;5458824;26;20083;-78
2024/04/19 10:39:47;;;;;;;2.05;0.75;;;11.50;99.90;;;;;;5470457;26;19998;-78
2024/04/19 10:42:17;;;;;;;4.05;0.90;;;11.50;99.90;;;;;;5465525;26;20013;-78
2024/04/19 10:44:46;;;;;;;3.78;0.98;;;11.40;99.90;;;;;;5474810;26;19999;-77
2024/04/19 10:47:12;;;;;;;4.20;0.82;;;11.40;99.90;;;;;;5465575;26;20009;-77
2024/04/19 10:49:39;;;;;;;4.93;1.02;;;11.30;99.90;;;;;;5480945;26;20573;-78
2024/04/19 10:52:05;;;;;;;2.13;0.70;;;11.40;99.90;;;;;;5480861;26;20012;-78
2024/04/19 10:54:31;;;;;;;3.47;0.98;;;11.40;99.90;;;;;;5480907;26;19998;-79
2024/04/19 10:56:58;;;;;;;6.90;1.10;;;11.50;99.90;;;;;;5477890;26;20002;-78
2024/04/19 10:59:24;;;;;;;3.63;1.13;;;11.70;99.90;;;;;;5465725;26;20009;-78
2024/04/19 11:01:50;;;;;;;4.95;0.90;;;11.70;99.90;;;;;;5471299;26;20209;-80
2024/04/19 11:04:16;;;;;;;2.17;0.73;;;11.70;99.90;;;;;;5469306;26;20820;-79
2024/04/19 11:06:42;;;;;;;1.48;0.55;;;11.60;99.90;;;;;;5467009;26;20123;-77
2024/04/19 11:09:08;;;;;;;1.35;0.68;;;11.30;99.90;;;;;;5480360;26;19998;-76
2024/04/19 11:11:37;;;;;;;4.95;0.80;;;11.10;99.90;;;;;;5481349;26;19998;-77
2024/04/19 11:14:12;;;;;;;2.45;0.70;;;10.90;99.90;;;;;;5454853;26;20002;-77
2024/04/19 11:16:37;;;;;;;4.68;0.50;;;10.70;99.90;;;;;;5467085;26;20011;-78
2024/04/19 11:19:06;;;;;;;2.30;0.60;;;10.50;99.90;;;;;;5473253;26;20013;-77
2024/04/19 11:21:33;;;;;;;4.75;0.90;;;10.50;99.90;;;;;;5476912;26;19998;-77
2024/04/19 11:23:59;;;;;;;2.17;0.95;;;10.40;99.90;;;;;;5478139;26;20042;-77
2024/04/19 11:26:24;;;;;;;3.53;0.80;;;10.40;99.90;;;;;;5476046;26;20002;-77
2024/04/19 11:28:50;;;;;;;3.63;0.82;;;10.40;99.90;;;;;;5467158;26;20537;-78
2024/04/19 11:31:16;;;;;;;3.05;0.80;;;10.40;99.90;;;;;;5455826;26;19998;-77
2024/04/19 11:33:42;;;;;;;3.17;0.77;;;10.40;99.90;;;;;;5460993;26;20424;-77
2024/04/19 11:36:14;;;;;;;3.40;1.00;;;10.40;99.90;;;;;;5474453;26;20009;-77
2024/04/19 11:38:41;;;;;;;4.82;1.02;;;10.40;99.90;;;;;;5481185;26;20540;-77
2024/04/19 11:41:11;;;;;;;3.20;1.02;;;10.40;99.90;;;;;;5458378;26;19999;-77
2024/04/19 11:43:37;;;;;;;3.50;0.90;;;10.40;99.90;;;;;;5469518;26;20066;-77
2024/04/19 11:46:02;;;;;;;5.43;0.75;;;10.40;99.90;;;;;;5478937;26;20006;-77
2024/04/19 11:48:28;;;;;;;2.30;0.80;;;10.40;99.90;;;;;;5480728;26;20445;-77
2024/04/19 11:50:55;;;;;;;2.95;0.60;;;10.40;99.90;;;;;;5468583;26;19994;-77
2024/04/19 11:53:21;;;;;;;2.90;0.60;;;10.40;99.90;;;;;;5480641;26;19998;-77
2024/04/19 11:55:50;;;;;;;1.70;0.50;;;10.40;99.90;;;;;;5478899;26;20008;-77
2024/04/19 11:58:19;;;;;;;2.17;0.73;;;10.40;99.90;;;;;;5468761;26;20006;-77
2024/04/19 12:00:50;;;;;;;2.80;0.50;;;10.30;99.90;;;;;;5479362;26;20485;-77
2024/04/19 12:03:15;;;;;;;3.55;1.05;;;10.30;99.90;;;;;;5483348;26;20207;-77
2024/04/19 12:05:41;;;;;;;4.25;1.10;;;10.30;99.90;;;;;;5482758;26;20492;-78
2024/04/19 12:08:07;;;;;;;3.35;1.08;;;10.20;99.90;;;;;;5483966;26;20047;-77
2024/04/19 12:10:32;;;;;;;4.60;0.98;;;10.20;99.90;;;;;;5482258;26;20017;-77
2024/04/19 12:12:58;;;;;;;4.55;1.20;;;10.30;99.90;;;;;;5483683;26;20459;-77
2024/04/19 12:15:24;;;;;;;5.13;1.35;;;10.30;99.90;;;;;;5478511;26;20010;-77
2024/04/19 12:17:50;;;;;;;8.15;1.30;;;10.50;99.90;;;;;;5483422;26;19995;-76
2024/04/19 12:20:16;;;;;;;5.30;1.50;;;10.70;99.90;;;;;;5482511;26;20460;-76
2024/04/19 12:22:42;;;;;;;4.10;1.02;;;10.80;99.90;;;;;;5483371;26;20046;-76
2024/04/19 12:25:08;;;;;;;7.38;1.67;;;11.00;99.90;;;;;;5481795;26;20736;-76
2024/04/19 12:27:34;;;;;;;6.78;1.35;;;11.00;99.90;;;;;;5483597;26;20013;-76
2024/04/19 12:30:00;;;;;;;9.52;1.45;;;11.00;99.90;;;;;;5482135;26;20443;-74
2024/04/19 12:32:25;;;;;;;5.65;1.27;;;11.00;99.90;;;;;;5482879;26;20002;-75
2024/04/19 12:34:51;;;;;;;5.65;1.05;;;11.00;99.90;;;;;;5482405;26;20005;-75
2024/04/19 12:37:17;;;;;;;5.55;0.80;;;10.90;99.90;;;;;;5483230;26;19998;-75
2024/04/19 12:39:42;;;;;;;4.57;0.70;;;10.80;99.90;;;;;;5475604;26;20034;-76
2024/04/19 12:42:08;;;;;;;2.13;0.73;;;10.70;99.90;;;;;;5466565;26;19998;-76
2024/04/19 12:44:34;;;;;;;3.70;0.52;;;10.60;99.90;;;;;;5479083;26;20005;-76
2024/04/19 12:46:59;;;;;;;3.58;0.68;;;10.50;99.90;;;;;;5461944;26;19998;-76
2024/04/19 12:49:25;;;;;;;3.83;1.00;;;10.50;99.90;;;;;;5482486;26;20487;-77
2024/04/19 12:51:54;;;;;;;6.22;1.10;;;10.50;99.90;;;;;;5479120;26;20013;-76